Time;durP1;ratioP1;P1;durP2;ratioP2;P2;SDS_P1;SDS_P2;PMS_P1;PMS_P2;Temp;Humidity;BMP_temperature;BMP_pressure;BME280_temperature;BME280_humidity;BME280_pressure;Samples;Min_cycle;Max_cycle;Signal;HPM_P1;HPM_P2
2024/01/01 00:00:38;;;;;;;11.23;7.40;;;19.50;44.50;;;;;;4990057;28;20227;-71
2024/01/01 00:03:03;;;;;;;6.60;6.00;;;19.50;44.30;;;;;;4978052;28;20220;-72
2024/01/01 00:05:29;;;;;;;7.33;6.63;;;19.50;44.40;;;;;;4984827;28;20250;-71
2024/01/01 00:07:56;;;;;;;7.93;6.87;;;19.50;44.40;;;;;;4983732;28;20235;-73
2024/01/01 00:10:21;;;;;;;6.80;6.20;;;19.50;44.50;;;;;;4989703;28;20223;-71
2024/01/01 00:12:47;;;;;;;8.33;6.07;;;19.50;44.50;;;;;;4987490;28;20792;-70
2024/01/01 00:15:13;;;;;;;6.10;5.70;;;19.50;44.40;;;;;;4989585;28;21102;-72
2024/01/01 00:17:39;;;;;;;6.97;6.27;;;19.50;44.40;;;;;;4982695;28;20646;-73
2024/01/01 00:20:06;;;;;;;7.03;6.33;;;19.50;44.50;;;;;;4990082;28;20220;-74
2024/01/01 00:22:31;;;;;;;6.37;5.80;;;19.50;44.50;;;;;;4978900;28;20442;-74
2024/01/01 00:24:58;;;;;;;7.10;6.40;;;19.50;44.50;;;;;;4985825;28;20423;-74
2024/01/01 00:27:24;;;;;;;5.97;5.50;;;19.50;44.50;;;;;;4990489;28;20256;-73
2024/01/01 00:29:50;;;;;;;6.53;6.00;;;19.50;44.50;;;;;;4991609;28;20485;-74
2024/01/01 00:32:16;;;;;;;7.37;6.80;;;19.50;44.50;;;;;;4986994;28;20424;-73
2024/01/01 00:34:42;;;;;;;7.17;5.70;;;19.50;44.40;;;;;;4987883;28;20250;-73
2024/01/01 00:37:08;;;;;;;7.43;5.87;;;19.50;44.50;;;;;;4995206;28;20858;-73
2024/01/01 00:39:33;;;;;;;6.73;5.90;;;19.50;44.30;;;;;;4989980;28;20469;-68
2024/01/01 00:41:59;;;;;;;5.90;5.30;;;19.50;44.40;;;;;;4985822;28;20224;-70
2024/01/01 00:44:26;;;;;;;8.83;6.37;;;19.50;44.30;;;;;;4987918;28;20226;-71
2024/01/01 00:46:52;;;;;;;8.10;6.87;;;19.50;44.20;;;;;;4990151;28;20223;-70
2024/01/01 00:49:17;;;;;;;7.87;5.77;;;19.50;44.30;;;;;;4983385;28;20420;-71
2024/01/01 00:51:43;;;;;;;8.00;4.60;;;19.50;43.60;;;;;;4987163;28;20230;-70
2024/01/01 00:54:10;;;;;;;5.40;4.83;;;19.50;44.20;;;;;;4974257;28;20753;-69
2024/01/01 00:56:35;;;;;;;6.20;5.80;;;19.50;44.20;;;;;;4968856;28;20222;-69
2024/01/01 00:59:01;;;;;;;5.70;5.20;;;19.50;44.20;;;;;;4973228;28;20443;-68
2024/01/01 01:01:26;;;;;;;5.00;4.60;;;19.50;44.20;;;;;;4983091;28;20219;-70
2024/01/01 01:03:52;;;;;;;5.33;4.93;;;19.50;44.20;;;;;;4991252;28;20219;-70
2024/01/01 01:06:19;;;;;;;9.03;5.37;;;19.50;44.20;;;;;;4983073;28;20223;-70
2024/01/01 01:08:44;;;;;;;11.57;4.60;;;19.50;44.20;;;;;;4978611;28;20220;-69
2024/01/01 01:11:10;;;;;;;10.33;6.10;;;19.50;44.20;;;;;;4973739;28;20476;-69
2024/01/01 01:13:35;;;;;;;7.77;5.90;;;19.50;44.20;;;;;;4985807;28;20228;-69
2024/01/01 01:16:01;;;;;;;5.60;4.97;;;19.50;44.20;;;;;;4991420;28;20227;-69
2024/01/01 01:18:27;;;;;;;6.70;5.37;;;19.50;44.20;;;;;;4989462;28;20671;-71
2024/01/01 01:20:52;;;;;;;9.40;5.43;;;19.50;44.20;;;;;;4994129;28;20216;-69
2024/01/01 01:23:18;;;;;;;4.90;4.50;;;19.50;44.20;;;;;;4970114;28;20242;-70
2024/01/01 01:25:44;;;;;;;4.90;4.43;;;19.50;44.20;;;;;;4997325;28;20289;-68
2024/01/01 01:28:12;;;;;;;5.53;4.70;;;19.60;44.30;;;;;;4995663;28;20273;-70
2024/01/01 01:30:38;;;;;;;5.67;4.93;;;19.50;44.20;;;;;;4994448;28;20445;-69
2024/01/01 01:33:04;;;;;;;5.87;5.27;;;19.60;44.30;;;;;;4977351;28;20455;-69
2024/01/01 01:35:29;;;;;;;5.20;4.70;;;19.60;44.30;;;;;;4983977;28;20255;-69
2024/01/01 01:37:55;;;;;;;4.33;3.93;;;19.50;44.20;;;;;;4991738;28;21971;-69
2024/01/01 01:40:23;;;;;;;4.27;3.87;;;19.60;44.30;;;;;;4993059;28;20735;-69
2024/01/01 01:42:51;;;;;;;7.20;4.10;;;19.50;44.20;;;;;;4956117;28;20248;-69
2024/01/01 01:45:17;;;;;;;4.73;3.80;;;19.50;44.20;;;;;;4978169;28;20450;-69
2024/01/01 01:47:43;;;;;;;6.73;4.00;;;19.60;44.30;;;;;;4994130;28;20412;-69
2024/01/01 01:50:09;;;;;;;6.70;4.93;;;19.60;44.30;;;;;;4987255;28;20307;-69
2024/01/01 01:52:38;;;;;;;3.80;3.50;;;19.60;44.30;;;;;;4975135;28;20246;-70
2024/01/01 01:55:05;;;;;;;3.90;3.50;;;19.60;44.30;;;;;;4982702;28;20979;-69
2024/01/01 01:57:34;;;;;;;3.43;3.23;;;19.60;44.30;;;;;;4989775;28;20430;-70
2024/01/01 02:00:00;;;;;;;3.70;3.40;;;19.50;44.20;;;;;;4989940;28;20448;-70
2024/01/01 02:02:28;;;;;;;3.50;3.30;;;19.60;44.30;;;;;;4986716;28;20492;-70
2024/01/01 02:04:53;;;;;;;6.20;3.57;;;19.60;44.30;;;;;;4981079;28;21365;-70
2024/01/01 02:07:20;;;;;;;5.00;3.60;;;19.60;44.30;;;;;;4977126;28;20543;-71
2024/01/01 02:09:46;;;;;;;3.87;3.57;;;19.60;44.30;;;;;;4960529;28;20701;-71
2024/01/01 02:12:12;;;;;;;3.10;2.90;;;19.50;44.20;;;;;;4963394;28;20469;-71
2024/01/01 02:14:37;;;;;;;3.63;3.43;;;19.60;44.30;;;;;;4989406;28;20789;-71
2024/01/01 02:17:03;;;;;;;3.57;3.20;;;19.60;44.30;;;;;;4974190;28;20228;-72
2024/01/01 02:19:29;;;;;;;3.07;2.87;;;19.50;44.20;;;;;;4987252;28;20219;-71
2024/01/01 02:21:58;;;;;;;4.50;3.00;;;19.60;44.30;;;;;;4994173;28;20218;-70
2024/01/01 02:24:23;;;;;;;2.93;2.73;;;19.60;44.30;;;;;;4990400;28;20641;-69
2024/01/01 02:26:49;;;;;;;3.70;2.97;;;19.50;44.20;;;;;;4982172;28;20452;-70
2024/01/01 02:29:15;;;;;;;4.80;2.90;;;19.50;44.20;;;;;;4990773;28;20774;-70
2024/01/01 02:31:41;;;;;;;3.13;2.70;;;19.50;44.80;;;;;;4974849;28;20220;-70
2024/01/01 02:34:10;;;;;;;2.60;2.40;;;19.50;44.20;;;;;;4977110;28;20568;-70
2024/01/01 02:36:42;;;;;;;3.30;2.87;;;19.50;44.20;;;;;;4982934;28;20706;-71
2024/01/01 02:39:09;;;;;;;3.07;2.73;;;19.50;44.20;;;;;;4988345;28;20568;-70
2024/01/01 02:41:36;;;;;;;3.33;3.03;;;19.50;44.20;;;;;;4980516;28;20820;-70
2024/01/01 02:44:03;;;;;;;3.10;2.90;;;19.50;44.20;;;;;;4989291;28;21048;-70
2024/01/01 02:46:28;;;;;;;2.63;2.43;;;19.50;44.20;;;;;;4991075;28;20481;-71
2024/01/01 02:48:54;;;;;;;2.67;2.50;;;19.50;44.20;;;;;;4978559;28;20443;-70
2024/01/01 02:51:20;;;;;;;2.90;2.47;;;19.50;44.20;;;;;;4977647;28;20228;-71
2024/01/01 02:53:46;;;;;;;4.10;2.23;;;19.50;44.20;;;;;;4977438;28;20246;-70
2024/01/01 02:56:21;;;;;;;2.77;2.57;;;19.50;44.20;;;;;;4969987;28;20230;-71
2024/01/01 02:58:47;;;;;;;2.20;2.00;;;19.50;44.20;;;;;;4968762;28;20227;-71
2024/01/01 03:01:13;;;;;;;2.80;2.60;;;19.50;44.20;;;;;;4974862;28;20483;-71
2024/01/01 03:03:39;;;;;;;2.63;2.43;;;19.50;44.20;;;;;;4975776;28;21061;-71
2024/01/01 03:06:06;;;;;;;2.20;2.07;;;19.50;44.20;;;;;;4974860;28;20919;-70
2024/01/01 03:08:36;;;;;;;2.60;2.40;;;19.50;44.20;;;;;;4977267;28;20224;-71
2024/01/01 03:11:05;;;;;;;3.07;2.60;;;19.50;44.20;;;;;;4982727;28;20872;-71
2024/01/01 03:13:31;;;;;;;2.23;2.13;;;19.50;44.30;;;;;;4975063;28;20988;-73
2024/01/01 03:15:57;;;;;;;2.30;2.10;;;19.50;44.20;;;;;;4965847;28;20545;-74
2024/01/01 03:18:28;;;;;;;3.30;2.73;;;19.50;44.20;;;;;;4986256;28;20439;-74
2024/01/01 03:20:55;;;;;;;2.10;2.00;;;19.50;44.20;;;;;;4963939;28;20452;-70
2024/01/01 03:23:21;;;;;;;2.17;1.97;;;19.50;44.20;;;;;;4971594;28;20492;-69
2024/01/01 03:25:46;;;;;;;2.30;2.10;;;19.50;44.20;;;;;;4968142;28;20832;-69
2024/01/01 03:28:12;;;;;;;2.40;2.20;;;19.50;44.20;;;;;;4976583;28;20511;-70
2024/01/01 03:30:38;;;;;;;1.83;1.73;;;19.50;44.20;;;;;;4980822;28;20246;-69
2024/01/01 03:33:04;;;;;;;2.00;1.80;;;19.50;44.20;;;;;;4987806;28;20277;-69
2024/01/01 03:35:31;;;;;;;2.90;2.30;;;19.50;44.20;;;;;;4989731;28;20250;-69
2024/01/01 03:38:00;;;;;;;3.20;2.30;;;19.50;44.20;;;;;;4960021;28;20642;-71
2024/01/01 03:40:26;;;;;;;3.50;2.20;;;19.50;44.20;;;;;;4975978;28;20431;-69
2024/01/01 03:42:51;;;;;;;2.57;2.40;;;19.50;44.20;;;;;;4991688;28;20886;-69
2024/01/01 03:45:18;;;;;;;2.00;1.80;;;19.50;44.20;;;;;;4990764;28;20592;-70
2024/01/01 03:47:43;;;;;;;2.00;1.90;;;19.50;44.20;;;;;;4983163;28;20223;-71
2024/01/01 03:50:09;;;;;;;2.40;2.10;;;19.50;44.20;;;;;;4986662;28;20822;-69
2024/01/01 03:52:35;;;;;;;2.30;1.87;;;19.50;44.20;;;;;;4984083;28;20277;-70
2024/01/01 03:55:00;;;;;;;2.37;2.17;;;19.50;44.20;;;;;;4974969;28;20240;-69
2024/01/01 03:57:26;;;;;;;2.20;2.00;;;19.50;44.20;;;;;;4964941;28;20275;-69
2024/01/01 03:59:52;;;;;;;2.33;2.20;;;19.50;44.20;;;;;;4990958;28;20224;-69
2024/01/01 04:02:18;;;;;;;1.80;1.70;;;19.50;44.20;;;;;;4977930;28;20315;-69
2024/01/01 04:04:44;;;;;;;1.90;1.70;;;19.50;45.00;;;;;;4964646;28;20242;-70
2024/01/01 04:07:10;;;;;;;3.00;2.80;;;19.50;44.20;;;;;;4990292;28;20469;-71
2024/01/01 04:09:36;;;;;;;2.23;1.70;;;19.50;44.30;;;;;;4981327;28;20813;-70
2024/01/01 04:12:01;;;;;;;2.27;1.70;;;19.50;44.20;;;;;;4983096;28;20458;-73
2024/01/01 04:14:27;;;;;;;1.90;1.57;;;19.50;44.20;;;;;;4979970;28;20234;-73
2024/01/01 04:16:52;;;;;;;1.70;1.60;;;19.50;44.20;;;;;;4986136;28;20231;-73
2024/01/01 04:19:18;;;;;;;1.83;1.70;;;19.50;44.20;;;;;;4981553;28;20224;-73
2024/01/01 04:21:43;;;;;;;3.17;1.73;;;19.50;44.20;;;;;;4986049;28;20613;-73
2024/01/01 04:24:09;;;;;;;2.30;2.10;;;19.50;44.20;;;;;;4994551;28;20220;-73
2024/01/01 04:26:37;;;;;;;2.60;1.73;;;19.50;44.20;;;;;;4996342;28;20216;-73
2024/01/01 04:29:02;;;;;;;1.60;1.50;;;19.50;44.20;;;;;;4989989;28;20231;-73
2024/01/01 04:31:28;;;;;;;2.53;2.33;;;19.50;44.20;;;;;;4992670;28;20987;-72
2024/01/01 04:33:54;;;;;;;1.93;1.50;;;19.50;44.20;;;;;;4993527;28;20235;-71
2024/01/01 04:36:20;;;;;;;2.50;1.63;;;19.50;44.20;;;;;;4975320;28;20236;-71
2024/01/01 04:38:46;;;;;;;1.50;1.40;;;19.50;44.20;;;;;;4974759;28;20472;-73
2024/01/01 04:41:12;;;;;;;1.63;1.53;;;19.50;44.20;;;;;;4983518;28;20433;-69
2024/01/01 04:43:40;;;;;;;2.73;1.53;;;19.50;44.20;;;;;;4994824;28;20205;-70
2024/01/01 04:46:07;;;;;;;1.80;1.70;;;19.50;44.20;;;;;;4986772;28;20881;-68
2024/01/01 04:48:34;;;;;;;1.80;1.60;;;19.50;44.20;;;;;;4990624;28;20437;-68
2024/01/01 04:50:59;;;;;;;4.03;1.40;;;19.50;44.20;;;;;;4992644;28;20437;-70
2024/01/01 04:53:25;;;;;;;1.80;1.50;;;19.50;44.20;;;;;;4976626;28;20473;-70
2024/01/01 04:55:51;;;;;;;1.57;1.47;;;19.50;45.00;;;;;;4984839;28;20223;-70
2024/01/01 04:58:16;;;;;;;3.07;1.80;;;19.50;44.20;;;;;;4984089;28;20745;-70
2024/01/01 05:00:42;;;;;;;1.60;1.47;;;19.50;44.20;;;;;;4990236;28;20219;-69
2024/01/01 05:03:07;;;;;;;1.57;1.40;;;19.50;44.20;;;;;;4991355;28;20307;-70
2024/01/01 05:05:33;;;;;;;2.10;1.50;;;19.50;44.20;;;;;;4991746;28;20265;-69
2024/01/01 05:07:58;;;;;;;1.77;1.67;;;19.60;44.30;;;;;;4993813;28;20577;-70
2024/01/01 05:10:24;;;;;;;3.93;1.70;;;19.60;44.30;;;;;;4993779;28;20220;-70
2024/01/01 05:12:50;;;;;;;1.73;1.50;;;19.60;44.30;;;;;;4990825;28;20227;-69
2024/01/01 05:15:15;;;;;;;1.57;1.27;;;19.60;44.30;;;;;;4981832;28;20243;-70
2024/01/01 05:17:41;;;;;;;2.50;1.40;;;19.60;44.30;;;;;;4991936;28;20232;-69
2024/01/01 05:20:07;;;;;;;3.03;1.50;;;19.60;44.30;;;;;;4992346;28;20235;-71
2024/01/01 05:22:33;;;;;;;1.60;1.20;;;19.60;44.30;;;;;;4987398;28;20326;-70
2024/01/01 05:24:58;;;;;;;1.37;1.23;;;19.60;44.30;;;;;;4989250;28;20807;-69
2024/01/01 05:27:25;;;;;;;1.30;1.20;;;19.60;44.30;;;;;;4993258;28;20229;-70
2024/01/01 05:29:51;;;;;;;1.60;1.50;;;19.60;44.30;;;;;;4990639;28;20686;-70
2024/01/01 05:32:16;;;;;;;1.50;1.27;;;19.60;44.30;;;;;;4987691;28;20431;-70
2024/01/01 05:34:42;;;;;;;1.43;1.30;;;19.60;44.30;;;;;;4975071;28;20263;-70
2024/01/01 05:37:08;;;;;;;1.90;1.60;;;19.60;44.30;;;;;;4992167;28;20306;-70
2024/01/01 05:39:34;;;;;;;1.40;1.30;;;19.60;44.30;;;;;;4988525;28;20578;-70
2024/01/01 05:41:59;;;;;;;1.60;1.17;;;19.60;44.30;;;;;;4987604;28;20534;-69
2024/01/01 05:44:25;;;;;;;1.30;1.17;;;19.60;44.30;;;;;;4990121;28;20227;-69
2024/01/01 05:46:50;;;;;;;2.30;1.60;;;19.60;44.30;;;;;;4991225;28;20219;-70
2024/01/01 05:49:17;;;;;;;1.50;1.20;;;19.60;44.30;;;;;;4989401;28;20679;-69
2024/01/01 05:51:44;;;;;;;2.43;1.50;;;19.60;44.30;;;;;;4981460;28;20307;-70
2024/01/01 05:54:10;;;;;;;1.60;1.00;;;19.60;44.30;;;;;;4973181;28;20452;-73
2024/01/01 05:56:36;;;;;;;3.50;1.80;;;19.60;44.30;;;;;;4981759;28;20948;-73
2024/01/01 05:59:02;;;;;;;2.07;1.20;;;19.60;44.30;;;;;;4992269;28;20224;-72
2024/01/01 06:01:28;;;;;;;1.67;1.20;;;19.60;44.20;;;;;;4982963;28;21144;-69
2024/01/01 06:03:53;;;;;;;1.20;1.10;;;19.60;44.20;;;;;;4982240;28;20317;-68
2024/01/01 06:06:19;;;;;;;1.40;1.20;;;19.60;44.30;;;;;;4992729;28;20223;-69
2024/01/01 06:08:44;;;;;;;1.73;1.30;;;19.60;44.30;;;;;;4996323;28;20216;-70
2024/01/01 06:11:10;;;;;;;1.37;1.27;;;19.60;44.30;;;;;;4988552;28;20548;-68
2024/01/01 06:13:35;;;;;;;1.27;1.10;;;19.70;44.40;;;;;;4990477;28;20254;-70
2024/01/01 06:16:03;;;;;;;1.30;1.20;;;19.60;44.30;;;;;;4995017;28;20227;-70
2024/01/01 06:18:29;;;;;;;1.30;1.20;;;19.60;44.30;;;;;;4990154;28;20238;-68
2024/01/01 06:20:54;;;;;;;2.60;1.20;;;19.60;44.30;;;;;;4989670;28;20439;-69
2024/01/01 06:23:20;;;;;;;1.37;1.27;;;19.60;44.30;;;;;;4991240;28;20232;-68
2024/01/01 06:25:45;;;;;;;1.50;1.40;;;19.70;44.30;;;;;;4988613;28;20211;-70
2024/01/01 06:28:11;;;;;;;1.30;1.20;;;19.70;44.30;;;;;;4979659;28;20984;-70
2024/01/01 06:30:36;;;;;;;1.13;1.03;;;19.70;44.30;;;;;;4980536;28;20311;-70
2024/01/01 06:33:03;;;;;;;3.90;1.30;;;19.70;44.20;;;;;;4992798;28;20307;-69
2024/01/01 06:35:30;;;;;;;1.63;1.00;;;19.70;44.00;;;;;;4980800;28;20255;-69
2024/01/01 06:37:58;;;;;;;1.50;1.17;;;19.60;43.90;;;;;;4980610;28;20816;-69
2024/01/01 06:40:24;;;;;;;1.37;1.10;;;19.70;44.00;;;;;;4994794;28;20437;-70
2024/01/01 06:42:49;;;;;;;2.53;1.17;;;19.70;44.10;;;;;;4986150;28;20436;-69
2024/01/01 06:45:15;;;;;;;1.40;1.30;;;19.70;44.00;;;;;;4981351;28;20228;-69
2024/01/01 06:47:40;;;;;;;1.77;1.10;;;19.70;44.00;;;;;;4991698;28;20287;-69
2024/01/01 06:50:07;;;;;;;1.10;1.00;;;19.60;44.00;;;;;;4990239;28;20219;-69
2024/01/01 06:52:32;;;;;;;1.30;1.07;;;19.70;44.00;;;;;;4992569;28;20227;-69
2024/01/01 06:54:59;;;;;;;1.77;1.10;;;19.70;44.10;;;;;;4978821;28;20509;-70
2024/01/01 06:57:24;;;;;;;1.17;0.90;;;19.70;44.00;;;;;;4990558;28;20430;-70
2024/01/01 06:59:50;;;;;;;1.43;1.17;;;19.70;44.00;;;;;;4984571;28;20994;-70
2024/01/01 07:02:16;;;;;;;1.07;0.97;;;19.70;44.00;;;;;;4991180;28;20750;-73
2024/01/01 07:04:41;;;;;;;1.40;1.30;;;19.70;44.10;;;;;;4972999;28;20582;-73
2024/01/01 07:07:07;;;;;;;1.23;1.00;;;19.70;44.00;;;;;;4982503;28;20592;-73
2024/01/01 07:09:32;;;;;;;0.90;0.90;;;19.70;44.00;;;;;;4963001;28;20223;-73
2024/01/01 07:11:58;;;;;;;1.60;1.00;;;19.70;44.10;;;;;;4994300;28;20219;-71
2024/01/01 07:14:24;;;;;;;1.27;1.07;;;19.70;44.10;;;;;;4985889;28;20282;-71
2024/01/01 07:16:53;;;;;;;1.13;1.00;;;19.70;44.00;;;;;;4993423;28;20310;-71
2024/01/01 07:19:19;;;;;;;1.23;1.13;;;19.70;44.00;;;;;;4990600;28;20429;-70
2024/01/01 07:21:44;;;;;;;1.73;0.97;;;19.70;44.10;;;;;;4989580;28;20462;-68
2024/01/01 07:24:10;;;;;;;0.90;0.90;;;19.70;44.00;;;;;;4980667;28;20289;-69
2024/01/01 07:26:35;;;;;;;1.30;0.97;;;19.70;44.00;;;;;;4984524;28;20302;-68
2024/01/01 07:29:01;;;;;;;1.30;1.03;;;19.70;44.00;;;;;;4989518;28;20638;-68
2024/01/01 07:31:26;;;;;;;1.23;1.10;;;19.70;43.80;;;;;;4989780;28;20235;-68
2024/01/01 07:33:52;;;;;;;2.77;1.17;;;19.70;43.90;;;;;;4970922;28;20664;-68
2024/01/01 07:36:17;;;;;;;1.73;1.27;;;19.70;43.80;;;;;;4984069;28;20230;-68
2024/01/01 07:38:43;;;;;;;2.03;1.00;;;19.70;43.80;;;;;;4988146;28;20227;-68
2024/01/01 07:41:10;;;;;;;1.00;0.90;;;19.70;44.50;;;;;;4985479;28;20340;-70
2024/01/01 07:43:35;;;;;;;0.80;0.80;;;19.70;43.70;;;;;;4988905;28;20432;-69
2024/01/01 07:46:01;;;;;;;1.30;1.10;;;19.70;43.70;;;;;;4993301;28;20257;-68
2024/01/01 07:48:27;;;;;;;1.93;1.10;;;19.70;43.70;;;;;;4971482;28;20374;-69
2024/01/01 07:50:52;;;;;;;2.20;1.10;;;19.70;43.70;;;;;;4973928;28;20211;-70
2024/01/01 07:53:18;;;;;;;1.17;0.80;;;19.70;43.60;;;;;;4993345;28;20255;-69
2024/01/01 07:55:43;;;;;;;1.20;1.10;;;19.70;43.70;;;;;;4985352;28;20223;-71
2024/01/01 07:58:09;;;;;;;1.63;0.93;;;19.70;43.60;;;;;;4984981;28;20238;-68
2024/01/01 08:00:34;;;;;;;1.00;0.90;;;19.70;43.60;;;;;;4991895;28;20266;-70
2024/01/01 08:03:00;;;;;;;1.20;1.10;;;19.70;43.60;;;;;;4992455;28;20218;-69
2024/01/01 08:05:25;;;;;;;0.93;0.83;;;19.70;43.50;;;;;;4990751;28;20223;-68
2024/01/01 08:07:51;;;;;;;1.10;1.00;;;19.70;43.40;;;;;;4991325;28;20645;-69
2024/01/01 08:10:17;;;;;;;1.13;0.90;;;19.70;43.40;;;;;;4983482;28;20734;-68
2024/01/01 08:12:43;;;;;;;0.80;0.80;;;19.70;43.40;;;;;;4995952;28;20208;-69
2024/01/01 08:15:08;;;;;;;1.17;1.03;;;19.70;43.40;;;;;;4985256;28;20215;-71
2024/01/01 08:17:34;;;;;;;1.23;1.00;;;19.70;43.30;;;;;;4991282;28;20231;-69
2024/01/01 08:20:00;;;;;;;1.20;1.10;;;19.70;43.30;;;;;;4978966;28;20223;-69
2024/01/01 08:22:25;;;;;;;0.97;0.90;;;19.70;43.30;;;;;;4974085;28;20592;-71
2024/01/01 08:24:51;;;;;;;1.03;0.93;;;19.70;43.30;;;;;;4980342;28;20230;-71
2024/01/01 08:27:16;;;;;;;1.67;0.90;;;19.70;43.30;;;;;;4994531;28;20235;-71
2024/01/01 08:29:42;;;;;;;1.30;0.90;;;19.70;43.40;;;;;;4990741;28;20231;-71
2024/01/01 08:32:08;;;;;;;1.17;0.90;;;19.70;43.40;;;;;;4984901;28;20216;-71
2024/01/01 08:34:33;;;;;;;1.10;0.83;;;19.70;43.40;;;;;;4985009;28;20239;-71
2024/01/01 08:37:01;;;;;;;0.97;0.80;;;19.70;43.40;;;;;;4987712;28;20232;-71
2024/01/01 08:39:27;;;;;;;1.23;0.90;;;19.70;43.40;;;;;;4988168;28;20227;-70
2024/01/01 08:41:53;;;;;;;1.30;0.87;;;19.70;43.40;;;;;;4983429;28;20493;-70
2024/01/01 08:44:18;;;;;;;1.70;1.20;;;19.70;43.30;;;;;;4992309;28;20227;-71
2024/01/01 08:46:44;;;;;;;1.00;0.90;;;19.70;43.30;;;;;;4993986;28;20908;-71
2024/01/01 08:49:09;;;;;;;1.00;0.90;;;19.70;43.30;;;;;;4987364;28;20224;-71
2024/01/01 08:51:35;;;;;;;1.00;0.90;;;19.70;43.40;;;;;;4997871;28;20223;-68
2024/01/01 08:54:03;;;;;;;0.93;0.83;;;19.70;43.30;;;;;;4986132;28;20236;-68
2024/01/01 08:56:28;;;;;;;1.10;0.80;;;19.60;43.10;;;;;;4995048;28;20510;-70
2024/01/01 08:58:54;;;;;;;1.90;0.90;;;19.70;44.00;;;;;;4991943;28;20484;-69
2024/01/01 09:01:20;;;;;;;1.10;1.00;;;19.60;43.10;;;;;;4993898;28;20211;-69
2024/01/01 09:03:45;;;;;;;1.83;1.00;;;19.60;43.00;;;;;;4989618;28;20229;-73
2024/01/01 09:06:11;;;;;;;0.90;0.70;;;19.70;43.20;;;;;;4993013;28;20223;-69
2024/01/01 09:08:36;;;;;;;1.17;1.07;;;19.60;43.10;;;;;;4995165;28;20273;-69
2024/01/01 09:11:03;;;;;;;0.90;0.80;;;19.60;43.20;;;;;;4993968;28;20227;-69
2024/01/01 09:13:30;;;;;;;1.10;0.70;;;19.60;43.20;;;;;;4990986;28;20646;-68
2024/01/01 09:15:55;;;;;;;2.07;0.90;;;19.60;43.10;;;;;;4989571;28;20438;-69
2024/01/01 09:18:21;;;;;;;0.80;0.70;;;19.60;43.10;;;;;;4994690;28;20439;-69
2024/01/01 09:20:47;;;;;;;1.60;1.00;;;19.70;44.00;;;;;;4995455;28;20224;-74
2024/01/01 09:23:13;;;;;;;1.10;1.00;;;19.70;43.20;;;;;;4987733;28;20259;-73
2024/01/01 09:25:40;;;;;;;0.80;0.70;;;19.60;43.20;;;;;;4964330;28;20448;-72
2024/01/01 09:28:06;;;;;;;1.10;1.03;;;19.70;43.20;;;;;;4968815;28;20215;-70
2024/01/01 09:30:31;;;;;;;1.00;0.90;;;19.70;43.30;;;;;;4975232;28;20444;-72
2024/01/01 09:32:57;;;;;;;1.17;0.80;;;19.70;43.30;;;;;;4991887;28;20513;-70
2024/01/01 09:35:23;;;;;;;1.27;0.80;;;19.70;43.30;;;;;;4993942;28;20358;-71
2024/01/01 09:37:53;;;;;;;1.53;1.00;;;19.70;43.30;;;;;;4991260;28;20947;-70
2024/01/01 09:40:20;;;;;;;0.97;0.70;;;19.70;43.30;;;;;;4989401;28;20223;-69
2024/01/01 09:42:49;;;;;;;1.50;0.80;;;19.70;43.30;;;;;;4990313;28;21003;-71
2024/01/01 09:45:15;;;;;;;1.43;0.87;;;19.70;43.30;;;;;;4973611;28;20539;-69
2024/01/01 09:47:41;;;;;;;0.83;0.80;;;19.70;43.40;;;;;;4990639;28;20463;-70
2024/01/01 09:50:07;;;;;;;1.63;1.03;;;19.60;43.30;;;;;;4986873;28;20227;-71
2024/01/01 09:52:33;;;;;;;1.00;0.80;;;19.60;43.30;;;;;;4977968;28;20552;-71
2024/01/01 09:54:59;;;;;;;0.90;0.77;;;19.60;43.30;;;;;;4980736;28;20444;-71
2024/01/01 09:57:24;;;;;;;1.53;1.20;;;19.60;43.30;;;;;;4988222;28;20225;-69
2024/01/01 09:59:50;;;;;;;1.00;0.90;;;19.60;43.40;;;;;;4985127;28;20228;-71
2024/01/01 10:02:16;;;;;;;1.30;1.07;;;19.60;43.50;;;;;;4980491;28;20593;-71
2024/01/01 10:04:42;;;;;;;2.10;1.00;;;19.60;43.50;;;;;;4995673;28;20675;-71
2024/01/01 10:07:08;;;;;;;3.07;0.97;;;19.60;43.40;;;;;;4992697;28;20473;-71
2024/01/01 10:09:49;;;;;;;1.50;1.00;;;19.60;43.40;;;;;;4995970;28;20428;-71
2024/01/01 10:12:20;;;;;;;1.27;1.00;;;19.60;43.40;;;;;;4991714;28;20682;-70
2024/01/01 10:14:46;;;;;;;1.30;1.00;;;19.60;43.50;;;;;;4993258;28;20431;-70
2024/01/01 10:17:14;;;;;;;1.30;1.20;;;19.60;43.50;;;;;;4989751;28;20966;-70
2024/01/01 10:19:56;;;;;;;1.80;1.00;;;19.60;43.50;;;;;;4979610;28;20551;-70
2024/01/01 10:22:23;;;;;;;1.33;1.23;;;19.60;43.60;;;;;;4993780;28;20547;-70
2024/01/01 10:24:52;;;;;;;1.60;1.20;;;19.60;43.60;;;;;;4992678;28;20473;-69
2024/01/01 10:27:19;;;;;;;2.67;1.93;;;19.50;43.50;;;;;;4993256;28;20480;-70
2024/01/01 10:29:49;;;;;;;1.10;1.00;;;19.60;43.60;;;;;;4997084;28;20522;-69
2024/01/01 10:32:16;;;;;;;2.17;1.13;;;19.60;43.60;;;;;;4995360;28;20442;-68
2024/01/01 10:34:46;;;;;;;1.80;1.10;;;19.50;43.50;;;;;;4989411;28;21154;-68
2024/01/01 10:37:14;;;;;;;1.20;1.10;;;19.60;43.60;;;;;;4989549;28;20539;-70
2024/01/01 10:39:41;;;;;;;1.10;1.00;;;19.60;43.50;;;;;;4986702;28;20486;-69
2024/01/01 10:42:09;;;;;;;2.60;1.00;;;19.60;43.50;;;;;;4989823;28;20473;-69
2024/01/01 10:44:34;;;;;;;1.20;1.10;;;19.60;43.50;;;;;;4985694;28;20466;-68
2024/01/01 10:47:06;;;;;;;2.43;1.00;;;19.50;43.30;;;;;;4990472;28;20446;-69
2024/01/01 10:49:32;;;;;;;1.30;0.90;;;19.50;43.30;;;;;;4970297;28;20223;-69
2024/01/01 10:52:35;;;;;;;1.60;1.00;;;19.50;43.40;;;;;;4989892;28;20807;-69
2024/01/01 10:55:11;;;;;;;1.30;1.10;;;19.50;43.40;;;;;;4982666;28;20442;-69
2024/01/01 10:58:20;;;;;;;1.40;1.10;;;19.50;43.50;;;;;;4971592;28;20427;-71
2024/01/01 11:01:02;;;;;;;1.13;1.00;;;19.50;43.50;;;;;;4964259;28;20951;-69
2024/01/01 11:03:30;;;;;;;1.97;0.90;;;19.50;43.50;;;;;;4985886;28;20447;-69
2024/01/01 11:05:56;;;;;;;1.73;1.00;;;19.50;43.50;;;;;;4990065;28;20472;-70
2024/01/01 11:08:28;;;;;;;1.50;0.93;;;19.50;43.60;;;;;;4966516;28;20461;-71
2024/01/01 11:10:55;;;;;;;2.90;1.10;;;19.50;43.60;;;;;;4993633;28;20239;-70
2024/01/01 11:13:26;;;;;;;1.10;0.80;;;19.50;43.60;;;;;;4983563;28;21074;-69
2024/01/01 11:16:06;;;;;;;4.60;1.50;;;19.50;43.60;;;;;;4962638;28;20560;-71
2024/01/01 11:18:36;;;;;;;1.40;1.13;;;19.50;43.60;;;;;;4992101;28;20432;-69
2024/01/01 11:21:06;;;;;;;1.20;1.10;;;19.50;43.60;;;;;;4991647;28;20445;-69
2024/01/01 11:23:47;;;;;;;1.20;1.07;;;19.50;43.60;;;;;;4990080;28;21106;-69
2024/01/01 11:26:32;;;;;;;2.17;1.10;;;19.50;43.60;;;;;;4995300;28;20467;-69
2024/01/01 11:28:58;;;;;;;1.40;1.00;;;19.50;43.60;;;;;;4977429;28;20463;-70
2024/01/01 11:31:27;;;;;;;2.87;1.10;;;19.50;43.70;;;;;;4985088;28;20498;-71
2024/01/01 11:34:04;;;;;;;1.30;0.90;;;19.50;43.60;;;;;;4991721;28;20234;-70
2024/01/01 11:36:29;;;;;;;1.33;1.00;;;19.50;43.60;;;;;;4989675;28;20445;-69
2024/01/01 11:38:56;;;;;;;1.50;1.23;;;19.50;43.60;;;;;;4981174;28;20516;-71
2024/01/01 11:41:24;;;;;;;3.23;1.10;;;19.50;43.60;;;;;;4992318;28;20550;-71
2024/01/01 11:43:50;;;;;;;1.57;1.10;;;19.50;43.60;;;;;;4981334;28;20471;-73
2024/01/01 11:46:25;;;;;;;1.20;1.00;;;19.50;43.60;;;;;;4981007;28;20444;-73
2024/01/01 11:48:58;;;;;;;1.33;0.83;;;19.50;43.70;;;;;;4994840;28;20223;-71
2024/01/01 11:51:24;;;;;;;1.20;0.80;;;19.50;43.60;;;;;;4969598;28;20446;-72
2024/01/01 11:54:09;;;;;;;1.10;1.00;;;19.50;43.60;;;;;;4989698;28;20444;-71
2024/01/01 11:56:36;;;;;;;1.13;0.90;;;19.50;43.60;;;;;;4984593;28;20220;-71
2024/01/01 11:59:02;;;;;;;1.33;1.00;;;19.50;43.60;;;;;;4987009;28;20530;-71
2024/01/01 12:01:29;;;;;;;1.43;1.07;;;19.50;43.60;;;;;;4986267;28;20416;-71
2024/01/01 12:03:56;;;;;;;1.67;1.00;;;19.50;43.60;;;;;;4992343;28;20419;-69
2024/01/01 12:06:22;;;;;;;2.27;0.97;;;19.50;43.70;;;;;;4995655;28;20939;-71
2024/01/01 12:08:47;;;;;;;2.30;1.00;;;19.50;43.70;;;;;;4994055;28;20454;-71
2024/01/01 12:11:17;;;;;;;2.23;2.13;;;19.50;43.60;;;;;;4992535;28;20945;-71
2024/01/01 12:13:54;;;;;;;1.57;1.00;;;19.50;43.60;;;;;;4998877;28;20215;-71
2024/01/01 12:16:20;;;;;;;0.93;0.80;;;19.50;43.60;;;;;;4994508;28;20415;-70
2024/01/01 12:18:46;;;;;;;1.20;1.00;;;19.50;43.70;;;;;;4998907;28;20502;-70
2024/01/01 12:21:11;;;;;;;1.77;1.00;;;19.50;43.60;;;;;;4999776;28;20735;-70
2024/01/01 12:23:37;;;;;;;1.07;0.90;;;19.50;43.70;;;;;;5001048;28;20220;-71
2024/01/01 12:26:03;;;;;;;1.60;1.07;;;19.50;43.70;;;;;;5003242;28;21156;-71
2024/01/01 12:28:29;;;;;;;1.10;1.00;;;19.50;43.60;;;;;;4979529;28;20499;-71
2024/01/01 12:30:55;;;;;;;1.20;1.10;;;19.50;43.70;;;;;;4986147;28;20961;-70
2024/01/01 12:33:21;;;;;;;3.90;1.23;;;19.50;43.70;;;;;;4974752;28;20230;-70
2024/01/01 12:35:46;;;;;;;1.30;0.80;;;19.50;43.50;;;;;;4967571;28;20239;-72
2024/01/01 12:38:12;;;;;;;1.40;1.10;;;19.50;43.50;;;;;;4972783;28;20227;-71
2024/01/01 12:40:37;;;;;;;1.20;1.07;;;19.50;43.50;;;;;;4966258;28;20225;-73
2024/01/01 12:43:03;;;;;;;1.20;0.90;;;19.50;43.60;;;;;;4963351;28;20224;-72